createdAt,value
2019-01-21T00:00:42.889Z,991.31
2019-01-21T00:01:42.308Z,991.21
2019-01-21T00:02:42.230Z,991.31
2019-01-21T00:03:42.157Z,991.32
2019-01-21T00:04:42.093Z,991.28
2019-01-21T00:05:42.016Z,991.30
2019-01-21T00:06:41.930Z,991.32
2019-01-21T00:07:41.854Z,991.26
2019-01-21T00:08:41.796Z,991.24
2019-01-21T00:09:41.716Z,991.26
2019-01-21T00:10:41.640Z,991.24
2019-01-21T00:11:41.572Z,991.20
2019-01-21T00:12:41.482Z,991.24
2019-01-21T00:13:41.415Z,991.23
2019-01-21T00:14:41.346Z,991.25
2019-01-21T00:15:41.296Z,991.26
2019-01-21T00:16:41.189Z,991.23
2019-01-21T00:17:41.118Z,991.26
2019-01-21T00:18:41.051Z,991.26
2019-01-21T00:19:40.971Z,991.26
2019-01-21T00:20:40.897Z,991.24
2019-01-21T00:21:40.812Z,991.20
2019-01-21T00:22:40.741Z,991.25
2019-01-21T00:23:40.666Z,991.28
2019-01-21T00:24:40.602Z,991.25
2019-01-21T00:25:40.576Z,991.33
2019-01-21T00:26:40.465Z,991.30
2019-01-21T00:27:40.375Z,991.29
2019-01-21T00:28:40.292Z,991.28
2019-01-21T00:29:40.220Z,991.29
2019-01-21T00:30:40.144Z,991.31
2019-01-21T00:31:40.071Z,991.33
2019-01-21T00:32:40.001Z,991.32
2019-01-21T00:33:39.906Z,991.39
2019-01-21T00:34:39.836Z,991.40
2019-01-21T00:35:39.775Z,991.43
2019-01-21T00:36:39.701Z,991.46
2019-01-21T00:37:39.622Z,991.43
2019-01-21T00:38:39.536Z,991.46
2019-01-21T00:39:39.745Z,991.44
2019-01-21T00:40:39.397Z,991.44
2019-01-21T00:41:39.321Z,991.46
2019-01-21T00:42:39.245Z,991.44
2019-01-21T00:43:39.196Z,991.38
2019-01-21T00:44:39.090Z,991.42
2019-01-21T00:45:39.027Z,991.40
2019-01-21T00:46:38.936Z,991.41
2019-01-21T00:47:38.869Z,991.40
2019-01-21T00:48:38.798Z,991.33
2019-01-21T00:49:38.721Z,991.36
2019-01-21T00:50:38.648Z,991.31
2019-01-21T00:51:38.571Z,991.28
2019-01-21T00:52:38.487Z,991.32
2019-01-21T00:53:38.422Z,991.29
2019-01-21T00:54:38.346Z,991.24
2019-01-21T00:55:38.276Z,991.30
2019-01-21T00:56:38.187Z,991.28
2019-01-21T00:57:38.131Z,991.27
2019-01-21T00:58:38.038Z,991.35
2019-01-21T00:59:37.968Z,991.38
2019-01-21T01:00:37.904Z,991.29
2019-01-21T01:01:37.824Z,991.31
2019-01-21T01:02:37.759Z,991.32
2019-01-21T01:03:37.666Z,991.30
2019-01-21T01:04:37.606Z,991.25
2019-01-21T01:05:37.527Z,991.32
2019-01-21T01:06:37.450Z,991.34
2019-01-21T01:07:37.385Z,991.39
2019-01-21T01:08:37.292Z,991.36
2019-01-21T01:09:37.222Z,991.38
2019-01-21T01:10:37.153Z,991.38
2019-01-21T01:11:37.080Z,991.40
2019-01-21T01:12:36.993Z,991.45
2019-01-21T01:13:36.916Z,991.42
2019-01-21T01:14:36.857Z,991.45
2019-01-21T01:15:36.768Z,991.42
2019-01-21T01:16:36.760Z,991.51
2019-01-21T01:17:37.294Z,991.44
2019-01-21T01:18:36.549Z,991.49
2019-01-21T01:19:36.478Z,991.48
2019-01-21T01:20:36.394Z,991.45
2019-01-21T01:21:36.377Z,991.51
2019-01-21T01:22:36.241Z,991.54
2019-01-21T01:23:36.173Z,991.55
2019-01-21T01:24:36.101Z,991.51
2019-01-21T01:25:36.029Z,991.55
2019-01-21T01:26:35.948Z,991.60
2019-01-21T01:27:35.868Z,991.55
2019-01-21T01:28:35.806Z,991.56
2019-01-21T01:29:35.731Z,991.55
2019-01-21T01:30:35.654Z,991.50
2019-01-21T01:31:35.580Z,991.58
2019-01-21T01:32:35.514Z,991.51
2019-01-21T01:33:35.436Z,991.50
2019-01-21T01:34:35.355Z,991.52
2019-01-21T01:35:35.282Z,991.48
2019-01-21T01:36:35.196Z,991.49
2019-01-21T01:37:35.124Z,991.50
2019-01-21T01:38:35.062Z,991.48
2019-01-21T01:39:34.980Z,991.50
2019-01-21T01:40:34.907Z,991.45
2019-01-21T01:41:34.827Z,991.43
2019-01-21T01:42:34.746Z,991.42
2019-01-21T01:43:34.670Z,991.43
2019-01-21T01:44:34.610Z,991.47
2019-01-21T01:45:34.533Z,991.47
2019-01-21T01:46:34.457Z,991.43
2019-01-21T01:47:34.385Z,991.46
2019-01-21T01:48:34.298Z,991.48
2019-01-21T01:49:34.243Z,991.48
2019-01-21T01:50:34.142Z,991.50
2019-01-21T01:51:34.071Z,991.47
2019-01-21T01:52:34.014Z,991.46
2019-01-21T01:53:33.936Z,991.49
2019-01-21T01:54:33.861Z,991.42
2019-01-21T01:55:33.783Z,991.36
2019-01-21T01:56:33.702Z,991.32
2019-01-21T01:57:33.623Z,991.37
2019-01-21T01:58:33.563Z,991.32
2019-01-21T01:59:33.489Z,991.37
2019-01-21T02:00:33.400Z,991.33
2019-01-21T02:01:33.324Z,991.33
2019-01-21T02:02:33.269Z,991.47
2019-01-21T02:03:33.178Z,991.48
2019-01-21T02:04:33.117Z,991.51
2019-01-21T02:05:33.037Z,991.49
2019-01-21T02:06:32.954Z,991.46
2019-01-21T02:07:32.874Z,991.53
2019-01-21T02:08:32.815Z,991.51
2019-01-21T02:09:32.740Z,991.55
2019-01-21T02:10:32.661Z,991.60
2019-01-21T02:11:32.588Z,991.54
2019-01-21T02:12:32.502Z,991.58
2019-01-21T02:13:32.445Z,991.61
2019-01-21T02:14:32.365Z,991.60
2019-01-21T02:15:32.292Z,991.62
2019-01-21T02:16:32.240Z,991.62
2019-01-21T02:17:32.123Z,991.62
2019-01-21T02:18:32.094Z,991.66
2019-01-21T02:19:31.976Z,991.65
2019-01-21T02:20:31.913Z,991.66
2019-01-21T02:21:31.846Z,991.68
2019-01-21T02:22:31.771Z,991.70
2019-01-21T02:23:31.693Z,991.76
2019-01-21T02:24:31.605Z,991.81
2019-01-21T02:25:31.549Z,991.83
2019-01-21T02:26:31.469Z,991.88
2019-01-21T02:27:31.384Z,991.93
2019-01-21T02:28:31.316Z,991.96
2019-01-21T02:29:31.240Z,992.00
2019-01-21T02:30:31.153Z,992.00
2019-01-21T02:31:31.085Z,992.02
2019-01-21T02:32:31.016Z,992.01
2019-01-21T02:33:30.950Z,992.03
2019-01-21T02:34:30.868Z,992.10
2019-01-21T02:35:30.791Z,992.00
2019-01-21T02:36:30.723Z,992.09
2019-01-21T02:37:30.648Z,992.08
2019-01-21T02:38:30.643Z,992.13
2019-01-21T02:39:30.482Z,992.09
2019-01-21T02:40:30.417Z,992.14
2019-01-21T02:41:30.348Z,992.13
2019-01-21T02:42:30.273Z,992.13
2019-01-21T02:43:30.195Z,992.11
2019-01-21T02:44:30.125Z,992.12
2019-01-21T02:45:30.050Z,992.08
2019-01-21T02:46:29.971Z,992.07
2019-01-21T02:47:29.894Z,992.09
2019-01-21T02:48:29.814Z,992.06
2019-01-21T02:49:29.737Z,992.05
2019-01-21T02:50:29.664Z,992.08
2019-01-21T02:51:29.589Z,992.05
2019-01-21T02:52:29.521Z,991.99
2019-01-21T02:53:29.448Z,992.00
2019-01-21T02:54:29.378Z,992.00
2019-01-21T02:55:29.300Z,992.04
2019-01-21T02:56:29.218Z,992.02
2019-01-21T02:57:29.141Z,992.00
2019-01-21T02:58:29.071Z,992.03
2019-01-21T02:59:28.993Z,991.96
2019-01-21T03:00:28.922Z,991.97
2019-01-21T03:01:28.858Z,991.97
2019-01-21T03:02:28.786Z,991.94
2019-01-21T03:03:28.694Z,991.96
2019-01-21T03:04:28.642Z,991.93
2019-01-21T03:05:28.554Z,991.97
2019-01-21T03:06:28.478Z,992.01
2019-01-21T03:07:28.405Z,991.92
2019-01-21T03:08:28.322Z,991.93
2019-01-21T03:09:28.244Z,991.92
2019-01-21T03:10:28.180Z,991.93
2019-01-21T03:11:28.104Z,991.88
2019-01-21T03:12:28.027Z,991.92
2019-01-21T03:13:27.946Z,991.94
2019-01-21T03:14:27.885Z,991.88
2019-01-21T03:15:27.798Z,991.88
2019-01-21T03:16:27.737Z,991.90
2019-01-21T03:17:27.661Z,991.87
2019-01-21T03:18:27.572Z,991.85
2019-01-21T03:19:27.503Z,991.81
2019-01-21T03:20:27.436Z,991.76
2019-01-21T03:21:27.363Z,991.77
2019-01-21T03:22:27.291Z,991.78
2019-01-21T03:23:27.207Z,991.71
2019-01-21T03:24:27.149Z,991.66
2019-01-21T03:25:27.055Z,991.70
2019-01-21T03:26:26.983Z,991.73
2019-01-21T03:27:26.915Z,991.71
2019-01-21T03:28:26.837Z,991.78
2019-01-21T03:29:26.768Z,991.75
2019-01-21T03:30:26.717Z,991.81
2019-01-21T03:31:26.624Z,991.81
2019-01-21T03:32:26.575Z,991.79
2019-01-21T03:33:26.927Z,991.88
2019-01-21T03:34:26.394Z,991.87
2019-01-21T03:35:26.319Z,991.87
2019-01-21T03:36:26.233Z,991.81
2019-01-21T03:37:26.156Z,991.80
2019-01-21T03:38:26.086Z,991.77
2019-01-21T03:39:26.011Z,991.77
2019-01-21T03:40:25.944Z,991.72
2019-01-21T03:41:25.877Z,991.67
2019-01-21T03:42:25.795Z,991.71
2019-01-21T03:43:25.721Z,991.69
2019-01-21T03:44:25.671Z,991.72
2019-01-21T03:45:25.581Z,991.71
2019-01-21T03:46:25.489Z,991.68
2019-01-21T03:47:25.412Z,991.73
2019-01-21T03:48:25.345Z,991.69
2019-01-21T03:49:25.303Z,991.67
2019-01-21T03:50:25.207Z,991.72
2019-01-21T03:51:25.116Z,991.76
2019-01-21T03:52:25.052Z,991.69
2019-01-21T03:53:24.979Z,991.68
2019-01-21T03:54:24.911Z,991.72
2019-01-21T03:55:24.829Z,991.75
2019-01-21T03:56:24.757Z,991.75
2019-01-21T03:57:24.674Z,991.72
2019-01-21T03:58:24.592Z,991.72
2019-01-21T03:59:24.514Z,991.70
2019-01-21T04:00:24.461Z,991.75
2019-01-21T04:01:24.431Z,991.68
2019-01-21T04:02:24.307Z,991.72
2019-01-21T04:03:24.230Z,991.73
2019-01-21T04:04:24.154Z,991.77
2019-01-21T04:05:24.092Z,991.79
2019-01-21T04:06:24.015Z,991.79
2019-01-21T04:07:23.941Z,991.79
2019-01-21T04:08:23.852Z,991.81
2019-01-21T04:09:23.780Z,991.77
2019-01-21T04:10:23.698Z,991.81
2019-01-21T04:11:23.646Z,991.76
2019-01-21T04:12:23.567Z,991.78
2019-01-21T04:13:23.490Z,991.78
2019-01-21T04:14:23.467Z,991.76
2019-01-21T04:15:23.343Z,991.75
2019-01-21T04:16:23.268Z,991.77
2019-01-21T04:17:23.212Z,991.77
2019-01-21T04:18:24.659Z,991.78
2019-01-21T04:19:23.038Z,991.79
2019-01-21T04:20:22.971Z,991.75
2019-01-21T04:21:22.884Z,991.78
2019-01-21T04:22:22.817Z,991.78
2019-01-21T04:23:22.743Z,991.79
2019-01-21T04:24:22.656Z,991.80
2019-01-21T04:25:22.599Z,991.79
2019-01-21T04:26:22.514Z,991.81
2019-01-21T04:27:22.435Z,991.85
2019-01-21T04:28:22.369Z,991.84
2019-01-21T04:29:22.292Z,991.86
2019-01-21T04:30:22.220Z,991.82
2019-01-21T04:31:22.150Z,991.86
2019-01-21T04:32:22.066Z,991.85
2019-01-21T04:33:22.012Z,991.84
2019-01-21T04:34:21.914Z,991.82
2019-01-21T04:35:21.832Z,991.92
2019-01-21T04:36:21.775Z,991.87
2019-01-21T04:37:21.702Z,991.84
2019-01-21T04:38:21.617Z,991.88
2019-01-21T04:39:21.538Z,991.86
2019-01-21T04:40:21.475Z,991.89
2019-01-21T04:41:21.399Z,991.85
2019-01-21T04:42:21.325Z,991.80
2019-01-21T04:43:21.265Z,991.87
2019-01-21T04:44:21.167Z,991.84
2019-01-21T04:45:21.095Z,991.84
2019-01-21T04:46:21.021Z,991.90
2019-01-21T04:47:20.946Z,991.87
2019-01-21T04:48:20.885Z,991.92
2019-01-21T04:49:20.806Z,991.90
2019-01-21T04:50:20.737Z,991.84
2019-01-21T04:51:20.663Z,991.85
2019-01-21T04:52:20.594Z,991.94
2019-01-21T04:53:20.495Z,991.91
2019-01-21T04:54:20.428Z,991.88
2019-01-21T04:55:20.361Z,991.82
2019-01-21T04:56:20.272Z,991.77
2019-01-21T04:57:20.198Z,991.80
2019-01-21T04:58:20.122Z,991.76
2019-01-21T04:59:20.046Z,991.76
2019-01-21T05:00:19.987Z,991.74
2019-01-21T05:01:19.923Z,991.74
2019-01-21T05:02:19.832Z,991.80
2019-01-21T05:03:19.765Z,991.75
2019-01-21T05:04:19.677Z,991.73
2019-01-21T05:05:19.619Z,991.71
2019-01-21T05:06:19.525Z,991.77
2019-01-21T05:07:19.454Z,991.68
2019-01-21T05:08:19.388Z,991.71
2019-01-21T05:09:19.323Z,991.67
2019-01-21T05:10:19.229Z,991.70
2019-01-21T05:11:19.157Z,991.77
2019-01-21T05:12:19.094Z,991.71
2019-01-21T05:13:19.016Z,991.66
2019-01-21T05:14:18.942Z,991.66
2019-01-21T05:15:18.877Z,991.64
2019-01-21T05:16:18.787Z,991.63
2019-01-21T05:17:18.707Z,991.69
2019-01-21T05:18:18.647Z,991.62
2019-01-21T05:19:18.573Z,991.56
2019-01-21T05:20:18.483Z,991.57
2019-01-21T05:21:18.433Z,991.58
2019-01-21T05:22:18.341Z,991.56
2019-01-21T05:23:18.275Z,991.61
2019-01-21T05:24:18.201Z,991.64
2019-01-21T05:25:18.123Z,991.62
2019-01-21T05:26:18.047Z,991.63
2019-01-21T05:27:18.009Z,991.64
2019-01-21T05:28:17.899Z,991.59
2019-01-21T05:29:17.837Z,991.55
2019-01-21T05:30:17.748Z,991.60
2019-01-21T05:31:17.674Z,991.59
2019-01-21T05:32:17.609Z,991.61
2019-01-21T05:33:17.516Z,991.57
2019-01-21T05:34:17.432Z,991.60
2019-01-21T05:35:17.362Z,991.61
2019-01-21T05:36:17.302Z,991.67
2019-01-21T05:37:17.228Z,991.72
2019-01-21T05:38:17.158Z,991.68
2019-01-21T05:39:17.077Z,991.74
2019-01-21T05:40:16.992Z,991.79
2019-01-21T05:41:16.916Z,991.80
2019-01-21T05:42:16.850Z,991.83
2019-01-21T05:43:16.782Z,991.86
2019-01-21T05:44:16.695Z,991.93
2019-01-21T05:45:16.615Z,991.91
2019-01-21T05:46:16.535Z,991.94
2019-01-21T05:47:16.467Z,991.96
2019-01-21T05:48:16.401Z,991.90
2019-01-21T05:49:16.328Z,991.92
2019-01-21T05:50:16.236Z,991.88
2019-01-21T05:51:16.165Z,991.86
2019-01-21T05:52:16.098Z,991.82
2019-01-21T05:53:16.025Z,991.85
2019-01-21T05:54:15.950Z,991.88
2019-01-21T05:55:15.872Z,991.88
2019-01-21T05:56:15.792Z,991.87
2019-01-21T05:57:15.710Z,991.91
2019-01-21T05:58:15.650Z,991.90
2019-01-21T05:59:15.579Z,991.94
2019-01-21T06:00:15.508Z,991.94
2019-01-21T06:01:15.414Z,991.94
2019-01-21T06:02:15.342Z,991.97
2019-01-21T06:03:15.266Z,991.95
2019-01-21T06:04:15.213Z,991.89
2019-01-21T06:05:15.125Z,991.96
2019-01-21T06:06:15.051Z,991.97
2019-01-21T06:07:14.975Z,991.95
2019-01-21T06:08:14.892Z,991.97
2019-01-21T06:09:14.816Z,991.96
2019-01-21T06:10:14.765Z,991.93
2019-01-21T06:11:14.664Z,991.88
2019-01-21T06:12:14.599Z,991.91
2019-01-21T06:13:15.777Z,991.91
2019-01-21T06:14:14.490Z,991.89
2019-01-21T06:15:14.379Z,991.83
2019-01-21T06:16:14.300Z,991.90
2019-01-21T06:17:14.231Z,991.95
2019-01-21T06:18:14.147Z,991.90
2019-01-21T06:19:14.072Z,991.89
2019-01-21T06:20:13.988Z,991.93
2019-01-21T06:21:13.937Z,991.92
2019-01-21T06:22:13.849Z,991.89
2019-01-21T06:23:13.770Z,991.86
2019-01-21T06:24:13.694Z,991.91
2019-01-21T06:25:13.630Z,991.96
2019-01-21T06:26:13.536Z,991.97
2019-01-21T06:27:13.466Z,991.94
2019-01-21T06:28:13.397Z,991.97
2019-01-21T06:29:13.340Z,992.06
2019-01-21T06:30:13.257Z,992.02
2019-01-21T06:31:13.181Z,992.00
2019-01-21T06:32:13.097Z,992.07
2019-01-21T06:33:13.021Z,992.05
2019-01-21T06:34:12.952Z,992.05
2019-01-21T06:35:12.868Z,991.96
2019-01-21T06:36:12.786Z,992.03
2019-01-21T06:37:12.713Z,992.05
2019-01-21T06:38:12.631Z,992.04
2019-01-21T06:39:12.563Z,992.11
2019-01-21T06:40:12.490Z,992.16
2019-01-21T06:41:12.420Z,992.09
2019-01-21T06:42:12.346Z,992.15
2019-01-21T06:43:12.269Z,992.13
2019-01-21T06:44:12.179Z,992.16
2019-01-21T06:45:12.100Z,992.07
2019-01-21T06:46:12.038Z,992.13
2019-01-21T06:47:11.964Z,992.10
2019-01-21T06:48:11.893Z,992.09
2019-01-21T06:49:11.804Z,992.01
2019-01-21T06:50:11.724Z,992.00
2019-01-21T06:51:11.647Z,992.06
2019-01-21T06:52:11.586Z,991.96
2019-01-21T06:53:11.512Z,992.08
2019-01-21T06:54:11.431Z,992.03
2019-01-21T06:55:11.364Z,992.04
2019-01-21T06:56:11.266Z,992.05
2019-01-21T06:57:11.194Z,992.03
2019-01-21T06:58:11.118Z,992.00
2019-01-21T06:59:11.044Z,992.00
2019-01-21T07:00:10.982Z,992.02
2019-01-21T07:01:10.904Z,992.05
2019-01-21T07:02:10.814Z,992.03
2019-01-21T07:03:10.742Z,992.06
2019-01-21T07:04:10.673Z,992.04
2019-01-21T07:05:10.600Z,992.02
2019-01-21T07:06:10.524Z,992.10
2019-01-21T07:07:10.443Z,992.09
2019-01-21T07:08:10.375Z,992.11
2019-01-21T07:09:10.289Z,992.09
2019-01-21T07:10:10.227Z,992.11
2019-01-21T07:11:10.151Z,992.07
2019-01-21T07:12:10.072Z,992.06
2019-01-21T07:13:09.991Z,992.11
2019-01-21T07:14:09.916Z,992.18
2019-01-21T07:15:09.840Z,992.19
2019-01-21T07:16:09.756Z,992.21
2019-01-21T07:17:09.677Z,992.21
2019-01-21T07:18:09.632Z,992.21
2019-01-21T07:19:11.119Z,992.25
2019-01-21T07:20:09.452Z,992.29
2019-01-21T07:21:09.397Z,992.18
2019-01-21T07:22:09.302Z,992.28
2019-01-21T07:23:09.222Z,992.28
2019-01-21T07:24:09.164Z,992.30
2019-01-21T07:25:09.084Z,992.28
2019-01-21T07:26:08.998Z,992.29
2019-01-21T07:27:08.937Z,992.28
2019-01-21T07:28:08.864Z,992.36
2019-01-21T07:29:08.781Z,992.36
2019-01-21T07:30:08.707Z,992.33
2019-01-21T07:31:08.633Z,992.33
2019-01-21T07:32:08.547Z,992.32
2019-01-21T07:33:08.483Z,992.35
2019-01-21T07:34:08.412Z,992.35
2019-01-21T07:35:08.328Z,992.36
2019-01-21T07:36:08.243Z,992.40
2019-01-21T07:37:08.170Z,992.44
2019-01-21T07:38:08.107Z,992.48
2019-01-21T07:39:08.011Z,992.49
2019-01-21T07:40:07.948Z,992.47
2019-01-21T07:41:07.873Z,992.50
2019-01-21T07:42:07.794Z,992.45
2019-01-21T07:43:07.722Z,992.53
2019-01-21T07:44:07.647Z,992.47
2019-01-21T07:45:07.561Z,992.43
2019-01-21T07:46:07.491Z,992.57
2019-01-21T07:47:07.407Z,992.51
2019-01-21T07:48:07.384Z,992.50
2019-01-21T07:49:07.268Z,992.49
2019-01-21T07:50:07.178Z,992.60
2019-01-21T07:51:07.107Z,992.54
2019-01-21T07:52:07.035Z,992.54
2019-01-21T07:53:06.964Z,992.54
2019-01-21T07:54:06.891Z,992.55
2019-01-21T07:55:06.806Z,992.58
2019-01-21T07:56:06.730Z,992.54
2019-01-21T07:57:06.646Z,992.62
2019-01-21T07:58:06.592Z,992.59
2019-01-21T07:59:21.388Z,992.58
2019-01-21T08:00:06.430Z,992.52
2019-01-21T08:01:06.354Z,992.58
2019-01-21T08:02:06.285Z,992.63
2019-01-21T08:03:06.193Z,992.70
2019-01-21T08:04:06.117Z,992.57
2019-01-21T08:05:06.055Z,992.56
2019-01-21T08:06:05.984Z,992.60
2019-01-21T08:07:05.892Z,992.69
2019-01-21T08:08:05.815Z,992.64
2019-01-21T08:09:05.742Z,992.61
2019-01-21T08:10:05.664Z,992.63
2019-01-21T08:11:05.610Z,992.58
2019-01-21T08:12:05.525Z,992.62
2019-01-21T08:13:05.449Z,992.57
2019-01-21T08:14:05.377Z,992.57
2019-01-21T08:15:05.305Z,992.55
2019-01-21T08:16:05.211Z,992.62
2019-01-21T08:17:05.143Z,992.66
2019-01-21T08:18:05.067Z,992.60
2019-01-21T08:19:04.999Z,992.55
2019-01-21T08:20:04.928Z,992.59
2019-01-21T08:21:04.853Z,992.67
2019-01-21T08:22:04.764Z,992.55
2019-01-21T08:23:04.696Z,992.62
2019-01-21T08:24:04.626Z,992.62
2019-01-21T08:25:04.549Z,992.66
2019-01-21T08:26:04.472Z,992.66
2019-01-21T08:27:04.388Z,992.60
2019-01-21T08:28:04.313Z,992.60
2019-01-21T08:29:04.246Z,992.65
2019-01-21T08:30:04.177Z,992.72
2019-01-21T08:31:04.102Z,992.81
2019-01-21T08:32:04.038Z,992.85
2019-01-21T08:33:03.962Z,992.79
2019-01-21T08:34:03.862Z,992.78
2019-01-21T08:35:03.834Z,992.88
2019-01-21T08:36:03.726Z,992.86
2019-01-21T08:37:03.637Z,992.84
2019-01-21T08:38:03.586Z,992.86
2019-01-21T08:39:03.504Z,992.95
2019-01-21T08:40:03.434Z,993.01
2019-01-21T08:41:03.355Z,992.88
2019-01-21T08:42:03.280Z,992.91
2019-01-21T08:43:03.196Z,992.89
2019-01-21T08:44:03.135Z,993.01
2019-01-21T08:45:03.048Z,992.99
2019-01-21T08:46:02.989Z,993.02
2019-01-21T08:47:02.912Z,992.99
2019-01-21T08:48:02.835Z,992.97
2019-01-21T08:49:02.764Z,992.93
2019-01-21T08:50:02.691Z,993.06
2019-01-21T08:51:02.619Z,993.04
2019-01-21T08:52:02.543Z,992.94
2019-01-21T08:53:02.464Z,992.99
2019-01-21T08:54:02.390Z,992.96
2019-01-21T08:55:02.318Z,993.04
2019-01-21T08:56:02.236Z,992.95
2019-01-21T08:57:02.157Z,993.00
2019-01-21T08:58:02.096Z,993.05
2019-01-21T08:59:02.017Z,992.96
2019-01-21T09:00:01.948Z,992.88
2019-01-21T09:01:01.875Z,992.99
2019-01-21T09:02:01.803Z,993.01
2019-01-21T09:03:01.734Z,992.93
2019-01-21T09:04:01.642Z,993.03
2019-01-21T09:05:01.581Z,993.03
2019-01-21T09:06:01.495Z,993.08
2019-01-21T09:07:01.433Z,993.15
2019-01-21T09:08:01.355Z,993.18
2019-01-21T09:09:01.270Z,993.28
2019-01-21T09:10:01.197Z,993.29
2019-01-21T09:11:01.134Z,993.31
2019-01-21T09:12:01.056Z,993.31
2019-01-21T09:13:01.019Z,993.36
2019-01-21T09:14:00.913Z,993.36
2019-01-21T09:15:00.831Z,993.36
2019-01-21T09:16:00.753Z,993.42
2019-01-21T09:17:00.692Z,993.46
2019-01-21T09:18:00.604Z,993.36
2019-01-21T09:19:00.622Z,993.42
2019-01-21T09:20:00.468Z,993.45
2019-01-21T09:21:00.390Z,993.56
2019-01-21T09:22:00.327Z,993.54
2019-01-21T09:23:00.231Z,993.55
2019-01-21T09:24:00.169Z,993.49
2019-01-21T09:25:00.222Z,993.58
2019-01-21T09:26:00.030Z,993.58
2019-01-21T09:26:59.945Z,993.58
2019-01-21T09:27:59.870Z,993.59
2019-01-21T09:28:59.801Z,993.63
2019-01-21T09:29:59.725Z,993.57
2019-01-21T09:30:59.657Z,993.49
2019-01-21T09:31:59.589Z,993.56
2019-01-21T09:32:59.502Z,993.53
2019-01-21T09:33:59.453Z,993.62
2019-01-21T09:34:59.367Z,993.60
2019-01-21T09:35:59.295Z,993.56
2019-01-21T09:36:59.225Z,993.60
2019-01-21T09:37:59.151Z,993.62
2019-01-21T09:38:59.083Z,993.65
2019-01-21T09:39:58.994Z,993.62
2019-01-21T09:40:58.977Z,993.62
2019-01-21T09:41:58.865Z,993.64
2019-01-21T09:42:58.770Z,993.60
2019-01-21T09:43:58.698Z,993.66
2019-01-21T09:44:58.629Z,993.67
2019-01-21T09:45:58.574Z,993.66
2019-01-21T09:46:58.493Z,993.74
2019-01-21T09:47:58.425Z,993.73
2019-01-21T09:48:58.350Z,993.69
2019-01-21T09:49:58.275Z,993.75
2019-01-21T09:50:58.219Z,993.67
2019-01-21T09:51:58.134Z,993.75
2019-01-21T09:52:58.043Z,993.77
2019-01-21T09:53:57.971Z,993.81
2019-01-21T09:54:57.904Z,993.76
2019-01-21T09:55:57.838Z,993.73
2019-01-21T09:56:57.771Z,993.75
2019-01-21T09:57:57.683Z,993.82
2019-01-21T09:58:57.620Z,993.74
2019-01-21T09:59:57.551Z,993.72
2019-01-21T10:00:57.506Z,993.75
2019-01-21T10:01:57.408Z,993.76
2019-01-21T10:02:57.321Z,993.79
2019-01-21T10:03:57.253Z,993.68
2019-01-21T10:04:57.193Z,993.74
2019-01-21T10:05:57.115Z,993.77
2019-01-21T10:06:57.033Z,993.73
2019-01-21T10:07:56.961Z,993.73
2019-01-21T10:08:56.887Z,993.81
2019-01-21T10:09:56.817Z,993.76
2019-01-21T10:11:03.180Z,993.73
2019-01-21T10:11:56.684Z,993.83
2019-01-21T10:12:56.607Z,993.81
2019-01-21T10:13:56.625Z,993.80
2019-01-21T10:14:56.461Z,993.91
2019-01-21T10:15:56.389Z,993.89
2019-01-21T10:16:56.319Z,993.87
2019-01-21T10:17:56.246Z,993.93
2019-01-21T10:18:56.181Z,993.97
2019-01-21T10:19:56.088Z,993.90
2019-01-21T10:20:56.032Z,993.88
2019-01-21T10:21:55.946Z,993.98
2019-01-21T10:22:55.884Z,993.91
2019-01-21T10:23:55.817Z,994.01
2019-01-21T10:24:55.749Z,993.88
2019-01-21T10:25:55.673Z,993.92
2019-01-21T10:26:55.586Z,993.93
2019-01-21T10:27:55.526Z,994.00
2019-01-21T10:28:55.452Z,993.96
2019-01-21T10:29:55.373Z,993.89
2019-01-21T10:30:55.294Z,993.88
2019-01-21T10:31:59.303Z,993.95
2019-01-21T10:32:55.149Z,993.92
2019-01-21T10:33:55.078Z,994.00
2019-01-21T10:34:55.019Z,993.88
2019-01-21T10:35:54.942Z,993.95
2019-01-21T10:36:54.872Z,993.89
2019-01-21T10:37:54.792Z,993.89
2019-01-21T10:38:54.736Z,993.87
2019-01-21T10:39:54.653Z,993.94
2019-01-21T10:40:54.583Z,993.90
2019-01-21T10:41:54.542Z,993.86
2019-01-21T10:42:54.428Z,993.94
2019-01-21T10:43:54.357Z,993.78
2019-01-21T10:44:54.299Z,993.90
2019-01-21T10:45:54.225Z,993.86
2019-01-21T10:46:54.140Z,993.78
2019-01-21T10:47:54.068Z,993.81
2019-01-21T10:48:54.000Z,993.85
2019-01-21T10:49:57.412Z,993.84
2019-01-21T10:50:53.859Z,993.82
2019-01-21T10:51:53.788Z,993.88
2019-01-21T10:52:53.722Z,993.87
2019-01-21T10:53:53.649Z,993.85
2019-01-21T10:54:53.560Z,993.87
2019-01-21T10:55:53.490Z,993.93
2019-01-21T10:56:53.418Z,993.78
2019-01-21T10:57:53.347Z,993.80
2019-01-21T10:58:53.284Z,993.85
2019-01-21T10:59:53.216Z,993.86
2019-01-21T11:00:53.153Z,993.85
2019-01-21T11:01:53.075Z,993.88
2019-01-21T11:02:52.991Z,993.83
2019-01-21T11:03:52.922Z,993.84
2019-01-21T11:04:52.863Z,993.92
2019-01-21T11:05:52.780Z,993.76
2019-01-21T11:06:52.702Z,993.86
2019-01-21T11:07:52.624Z,993.78
2019-01-21T11:08:52.553Z,993.75
2019-01-21T11:09:52.479Z,993.81
2019-01-21T11:10:52.417Z,993.83
2019-01-21T11:11:54.134Z,993.76
2019-01-21T11:12:52.276Z,993.81
2019-01-21T11:13:52.201Z,993.84
2019-01-21T11:14:52.134Z,993.84
2019-01-21T11:15:52.119Z,993.80
2019-01-21T11:16:51.988Z,993.83
2019-01-21T11:17:51.910Z,993.74
2019-01-21T11:18:51.828Z,993.75
2019-01-21T11:19:51.758Z,993.76
2019-01-21T11:20:51.690Z,993.78
2019-01-21T11:21:51.631Z,993.80
2019-01-21T11:22:51.550Z,993.83
2019-01-21T11:23:51.480Z,993.82
2019-01-21T11:24:51.408Z,993.87
2019-01-21T11:25:51.329Z,993.97
2019-01-21T11:26:51.265Z,993.78
2019-01-21T11:27:51.769Z,993.80
2019-01-21T11:28:51.129Z,993.80
2019-01-21T11:29:51.049Z,993.83
2019-01-21T11:30:50.969Z,993.75
2019-01-21T11:31:50.897Z,993.82
2019-01-21T11:32:50.819Z,993.82
2019-01-21T11:33:50.754Z,993.90
2019-01-21T11:34:50.684Z,993.82
2019-01-21T11:35:50.607Z,993.87
2019-01-21T11:36:50.548Z,993.86
2019-01-21T11:37:50.464Z,993.83
2019-01-21T11:38:50.380Z,993.86
2019-01-21T11:39:50.306Z,993.89
2019-01-21T11:40:50.245Z,993.80
2019-01-21T11:41:50.175Z,993.86
2019-01-21T11:42:50.111Z,993.73
2019-01-21T11:43:50.014Z,993.82
2019-01-21T11:44:49.942Z,993.80
2019-01-21T11:45:49.887Z,993.80
2019-01-21T11:46:49.808Z,993.78
2019-01-21T11:47:49.731Z,993.76
2019-01-21T11:48:49.655Z,993.76
2019-01-21T11:49:49.586Z,993.78
2019-01-21T11:50:49.516Z,993.78
2019-01-21T11:51:49.438Z,993.73
2019-01-21T11:52:49.376Z,993.68
2019-01-21T11:53:49.305Z,993.73
2019-01-21T11:54:49.214Z,993.76
2019-01-21T11:55:49.155Z,993.68
2019-01-21T11:56:49.077Z,993.64
2019-01-21T11:57:48.994Z,993.48
2019-01-21T11:58:48.936Z,993.55
2019-01-21T11:59:48.860Z,993.56
2019-01-21T12:00:48.786Z,993.54
2019-01-21T12:01:48.728Z,993.57
2019-01-21T12:02:48.637Z,993.60
2019-01-21T12:03:48.558Z,993.59
2019-01-21T12:04:48.498Z,993.47
2019-01-21T12:05:48.427Z,993.47
2019-01-21T12:06:48.341Z,993.46
2019-01-21T12:07:48.287Z,993.59
2019-01-21T12:08:48.221Z,993.46
2019-01-21T12:09:48.118Z,993.48
2019-01-21T12:10:48.058Z,993.46
2019-01-21T12:11:47.990Z,993.44
2019-01-21T12:12:47.904Z,993.46
2019-01-21T12:13:47.842Z,993.34
2019-01-21T12:14:47.773Z,993.55
2019-01-21T12:15:47.703Z,993.46
2019-01-21T12:16:47.622Z,993.41
2019-01-21T12:17:47.550Z,993.39
2019-01-21T12:18:47.466Z,993.43
2019-01-21T12:19:47.394Z,993.45
2019-01-21T12:20:47.339Z,993.40
2019-01-21T12:21:47.265Z,993.43
2019-01-21T12:22:47.179Z,993.41
2019-01-21T12:23:47.119Z,993.37
2019-01-21T12:24:47.030Z,993.30
2019-01-21T12:25:46.983Z,993.31
2019-01-21T12:26:46.898Z,993.32
2019-01-21T12:27:46.824Z,993.41